sensor_id;sensor_type;location;lat;lon;timestamp;temperature;humidity
63648;DHT22;49792;48.744;9.176;2023-04-25T00:00:28;18.80;67.80
63648;DHT22;49792;48.744;9.176;2023-04-25T00:02:54;18.70;67.40
63648;DHT22;49792;48.744;9.176;2023-04-25T00:05:22;18.80;67.40
63648;DHT22;49792;48.744;9.176;2023-04-25T00:07:48;18.70;67.50
63648;DHT22;49792;48.744;9.176;2023-04-25T00:10:15;18.80;67.50
63648;DHT22;49792;48.744;9.176;2023-04-25T00:12:40;18.70;67.40
63648;DHT22;49792;48.744;9.176;2023-04-25T00:15:13;18.70;67.50
63648;DHT22;49792;48.744;9.176;2023-04-25T00:17:38;18.70;67.50
63648;DHT22;49792;48.744;9.176;2023-04-25T00:20:04;18.60;67.50
63648;DHT22;49792;48.744;9.176;2023-04-25T00:22:35;18.70;67.50
63648;DHT22;49792;48.744;9.176;2023-04-25T00:25:03;18.70;67.40
63648;DHT22;49792;48.744;9.176;2023-04-25T00:27:28;18.50;67.50
63648;DHT22;49792;48.744;9.176;2023-04-25T00:29:54;18.60;68.30
63648;DHT22;49792;48.744;9.176;2023-04-25T00:32:20;18.70;67.50
63648;DHT22;49792;48.744;9.176;2023-04-25T00:34:45;18.70;67.50
63648;DHT22;49792;48.744;9.176;2023-04-25T00:37:11;18.60;67.50
63648;DHT22;49792;48.744;9.176;2023-04-25T00:39:37;18.60;67.50
63648;DHT22;49792;48.744;9.176;2023-04-25T00:42:03;18.60;67.50
63648;DHT22;49792;48.744;9.176;2023-04-25T00:44:29;18.60;67.40
63648;DHT22;49792;48.744;9.176;2023-04-25T00:46:55;18.60;67.50
63648;DHT22;49792;48.744;9.176;2023-04-25T00:49:20;18.60;67.60
63648;DHT22;49792;48.744;9.176;2023-04-25T00:51:48;18.60;67.40
63648;DHT22;49792;48.744;9.176;2023-04-25T00:54:14;18.60;67.40
63648;DHT22;49792;48.744;9.176;2023-04-25T00:56:40;18.60;67.40
63648;DHT22;49792;48.744;9.176;2023-04-25T00:59:09;18.60;67.50
63648;DHT22;49792;48.744;9.176;2023-04-25T01:01:38;18.60;67.40
63648;DHT22;49792;48.744;9.176;2023-04-25T01:04:04;18.50;67.50
63648;DHT22;49792;48.744;9.176;2023-04-25T01:06:30;18.50;67.50
63648;DHT22;49792;48.744;9.176;2023-04-25T01:08:56;18.60;67.50
63648;DHT22;49792;48.744;9.176;2023-04-25T01:11:24;18.60;67.70
63648;DHT22;49792;48.744;9.176;2023-04-25T01:13:49;18.60;67.50
63648;DHT22;49792;48.744;9.176;2023-04-25T01:16:15;18.60;67.50
63648;DHT22;49792;48.744;9.176;2023-04-25T01:18:41;18.60;67.40
63648;DHT22;49792;48.744;9.176;2023-04-25T01:21:10;18.60;67.40
63648;DHT22;49792;48.744;9.176;2023-04-25T01:23:40;18.60;67.50
63648;DHT22;49792;48.744;9.176;2023-04-25T01:26:06;18.60;67.50
63648;DHT22;49792;48.744;9.176;2023-04-25T01:28:32;18.60;67.70
63648;DHT22;49792;48.744;9.176;2023-04-25T01:30:58;18.60;67.70
63648;DHT22;49792;48.744;9.176;2023-04-25T01:33:24;18.60;67.80
63648;DHT22;49792;48.744;9.176;2023-04-25T01:35:50;18.60;66.90
63648;DHT22;49792;48.744;9.176;2023-04-25T01:38:15;18.50;67.60
63648;DHT22;49792;48.744;9.176;2023-04-25T01:40:41;18.60;67.60
63648;DHT22;49792;48.744;9.176;2023-04-25T01:43:07;18.50;67.60
63648;DHT22;49792;48.744;9.176;2023-04-25T01:45:39;18.50;67.50
63648;DHT22;49792;48.744;9.176;2023-04-25T01:48:07;18.60;67.50
63648;DHT22;49792;48.744;9.176;2023-04-25T01:50:32;18.50;67.60
63648;DHT22;49792;48.744;9.176;2023-04-25T01:52:58;18.50;67.60
63648;DHT22;49792;48.744;9.176;2023-04-25T01:55:23;18.60;67.60
63648;DHT22;49792;48.744;9.176;2023-04-25T01:57:49;18.50;67.60
63648;DHT22;49792;48.744;9.176;2023-04-25T02:00:17;18.50;67.50
63648;DHT22;49792;48.744;9.176;2023-04-25T02:02:43;18.50;67.60
63648;DHT22;49792;48.744;9.176;2023-04-25T02:05:09;18.50;67.50
63648;DHT22;49792;48.744;9.176;2023-04-25T02:07:34;18.50;68.50
63648;DHT22;49792;48.744;9.176;2023-04-25T02:10:03;18.50;67.60
63648;DHT22;49792;48.744;9.176;2023-04-25T02:12:28;18.50;67.60
63648;DHT22;49792;48.744;9.176;2023-04-25T02:14:54;18.50;67.60
63648;DHT22;49792;48.744;9.176;2023-04-25T02:17:19;18.60;67.80
63648;DHT22;49792;48.744;9.176;2023-04-25T02:19:46;18.40;67.50
63648;DHT22;49792;48.744;9.176;2023-04-25T02:22:16;18.50;67.60
63648;DHT22;49792;48.744;9.176;2023-04-25T02:24:41;18.40;67.50
63648;DHT22;49792;48.744;9.176;2023-04-25T02:27:07;18.40;67.50
63648;DHT22;49792;48.744;9.176;2023-04-25T02:29:36;18.40;67.50
63648;DHT22;49792;48.744;9.176;2023-04-25T02:32:01;18.40;67.50
63648;DHT22;49792;48.744;9.176;2023-04-25T02:34:29;18.40;67.60
63648;DHT22;49792;48.744;9.176;2023-04-25T02:36:55;18.40;67.70
63648;DHT22;49792;48.744;9.176;2023-04-25T02:39:21;18.30;67.50
63648;DHT22;49792;48.744;9.176;2023-04-25T02:41:47;18.40;67.60
63648;DHT22;49792;48.744;9.176;2023-04-25T02:44:13;18.30;67.50
63648;DHT22;49792;48.744;9.176;2023-04-25T02:46:38;18.40;67.50
63648;DHT22;49792;48.744;9.176;2023-04-25T02:49:04;18.40;67.50
63648;DHT22;49792;48.744;9.176;2023-04-25T02:51:30;18.40;67.60
63648;DHT22;49792;48.744;9.176;2023-04-25T02:53:55;18.40;67.70
63648;DHT22;49792;48.744;9.176;2023-04-25T02:56:21;18.40;67.70
63648;DHT22;49792;48.744;9.176;2023-04-25T02:58:47;18.40;67.70
63648;DHT22;49792;48.744;9.176;2023-04-25T03:01:14;18.40;67.70
63648;DHT22;49792;48.744;9.176;2023-04-25T03:03:42;18.50;67.60
63648;DHT22;49792;48.744;9.176;2023-04-25T03:06:14;18.40;67.60
63648;DHT22;49792;48.744;9.176;2023-04-25T03:08:41;18.40;67.60
63648;DHT22;49792;48.744;9.176;2023-04-25T03:11:06;18.30;67.50
63648;DHT22;49792;48.744;9.176;2023-04-25T03:13:32;18.40;67.70
63648;DHT22;49792;48.744;9.176;2023-04-25T03:15:57;18.40;67.70
63648;DHT22;49792;48.744;9.176;2023-04-25T03:18:23;18.40;67.70
63648;DHT22;49792;48.744;9.176;2023-04-25T03:20:49;18.40;67.70
63648;DHT22;49792;48.744;9.176;2023-04-25T03:23:23;18.30;67.50
63648;DHT22;49792;48.744;9.176;2023-04-25T03:26:00;18.40;67.60
63648;DHT22;49792;48.744;9.176;2023-04-25T03:28:25;18.40;67.50
63648;DHT22;49792;48.744;9.176;2023-04-25T03:30:51;18.30;67.50
63648;DHT22;49792;48.744;9.176;2023-04-25T03:33:19;18.40;67.60
63648;DHT22;49792;48.744;9.176;2023-04-25T03:35:44;18.30;67.40
63648;DHT22;49792;48.744;9.176;2023-04-25T03:38:10;18.40;67.70
63648;DHT22;49792;48.744;9.176;2023-04-25T03:40:36;18.30;67.50
63648;DHT22;49792;48.744;9.176;2023-04-25T03:43:02;18.30;68.40
63648;DHT22;49792;48.744;9.176;2023-04-25T03:45:30;18.30;67.40
63648;DHT22;49792;48.744;9.176;2023-04-25T03:47:56;18.30;67.40
63648;DHT22;49792;48.744;9.176;2023-04-25T03:50:21;18.30;67.60
63648;DHT22;49792;48.744;9.176;2023-04-25T03:52:47;18.30;67.40
63648;DHT22;49792;48.744;9.176;2023-04-25T03:55:12;18.20;67.40
63648;DHT22;49792;48.744;9.176;2023-04-25T03:57:41;18.30;67.70
63648;DHT22;49792;48.744;9.176;2023-04-25T04:00:06;18.30;67.50
63648;DHT22;49792;48.744;9.176;2023-04-25T04:02:35;18.20;67.30
63648;DHT22;49792;48.744;9.176;2023-04-25T04:05:03;18.20;67.30
63648;DHT22;49792;48.744;9.176;2023-04-25T04:07:29;18.20;67.40
63648;DHT22;49792;48.744;9.176;2023-04-25T04:09:54;18.30;67.40
63648;DHT22;49792;48.744;9.176;2023-04-25T04:12:20;18.30;67.40
63648;DHT22;49792;48.744;9.176;2023-04-25T04:14:46;18.20;67.20
63648;DHT22;49792;48.744;9.176;2023-04-25T04:17:11;18.20;67.30
63648;DHT22;49792;48.744;9.176;2023-04-25T04:19:37;18.20;67.30
63648;DHT22;49792;48.744;9.176;2023-04-25T04:22:02;18.20;67.20
63648;DHT22;49792;48.744;9.176;2023-04-25T04:24:28;18.20;67.30
63648;DHT22;49792;48.744;9.176;2023-04-25T04:26:53;18.30;67.60
63648;DHT22;49792;48.744;9.176;2023-04-25T04:29:20;18.20;67.70
63648;DHT22;49792;48.744;9.176;2023-04-25T04:31:49;18.30;67.70
63648;DHT22;49792;48.744;9.176;2023-04-25T04:34:15;18.20;67.50
63648;DHT22;49792;48.744;9.176;2023-04-25T04:36:41;18.20;67.50
63648;DHT22;49792;48.744;9.176;2023-04-25T04:39:07;18.20;67.50
63648;DHT22;49792;48.744;9.176;2023-04-25T04:41:36;18.30;66.90
63648;DHT22;49792;48.744;9.176;2023-04-25T04:44:02;18.60;66.60
63648;DHT22;49792;48.744;9.176;2023-04-25T04:46:31;18.80;67.20
63648;DHT22;49792;48.744;9.176;2023-04-25T04:48:57;18.80;67.00
63648;DHT22;49792;48.744;9.176;2023-04-25T04:51:27;18.80;67.40
63648;DHT22;49792;48.744;9.176;2023-04-25T04:53:52;18.80;67.40
63648;DHT22;49792;48.744;9.176;2023-04-25T04:56:18;18.80;67.20
63648;DHT22;49792;48.744;9.176;2023-04-25T04:58:49;18.80;67.10
63648;DHT22;49792;48.744;9.176;2023-04-25T05:01:14;18.80;66.90
63648;DHT22;49792;48.744;9.176;2023-04-25T05:03:50;18.80;66.90
63648;DHT22;49792;48.744;9.176;2023-04-25T05:06:16;18.80;66.60
63648;DHT22;49792;48.744;9.176;2023-04-25T05:08:42;18.70;66.50
63648;DHT22;49792;48.744;9.176;2023-04-25T05:11:10;18.80;66.80
63648;DHT22;49792;48.744;9.176;2023-04-25T05:13:36;18.80;66.70
63648;DHT22;49792;48.744;9.176;2023-04-25T05:16:02;18.70;66.80
63648;DHT22;49792;48.744;9.176;2023-04-25T05:18:31;18.70;66.60
63648;DHT22;49792;48.744;9.176;2023-04-25T05:20:57;18.80;67.60
63648;DHT22;49792;48.744;9.176;2023-04-25T05:23:30;18.80;69.10
63648;DHT22;49792;48.744;9.176;2023-04-25T05:25:56;18.70;69.40
63648;DHT22;49792;48.744;9.176;2023-04-25T05:28:21;18.50;69.10
63648;DHT22;49792;48.744;9.176;2023-04-25T05:30:47;18.20;62.60
63648;DHT22;49792;48.744;9.176;2023-04-25T05:33:12;18.20;68.30
63648;DHT22;49792;48.744;9.176;2023-04-25T05:35:38;17.70;56.00
63648;DHT22;49792;48.744;9.176;2023-04-25T05:38:04;17.30;55.50
63648;DHT22;49792;48.744;9.176;2023-04-25T05:40:29;17.00;55.20
63648;DHT22;49792;48.744;9.176;2023-04-25T05:42:55;17.00;55.30
63648;DHT22;49792;48.744;9.176;2023-04-25T05:45:20;17.30;58.60
63648;DHT22;49792;48.744;9.176;2023-04-25T05:47:46;17.50;56.40
63648;DHT22;49792;48.744;9.176;2023-04-25T05:50:11;17.50;60.20
63648;DHT22;49792;48.744;9.176;2023-04-25T05:52:37;17.80;60.00
63648;DHT22;49792;48.744;9.176;2023-04-25T05:55:02;18.00;59.70
63648;DHT22;49792;48.744;9.176;2023-04-25T05:57:28;18.10;60.10
63648;DHT22;49792;48.744;9.176;2023-04-25T05:59:53;18.10;60.60
63648;DHT22;49792;48.744;9.176;2023-04-25T06:02:19;18.00;61.10
63648;DHT22;49792;48.744;9.176;2023-04-25T06:04:46;18.00;61.20
63648;DHT22;49792;48.744;9.176;2023-04-25T06:07:11;17.90;61.30
63648;DHT22;49792;48.744;9.176;2023-04-25T06:09:37;18.00;61.20
63648;DHT22;49792;48.744;9.176;2023-04-25T06:12:04;18.00;61.60
63648;DHT22;49792;48.744;9.176;2023-04-25T06:14:30;18.00;61.40
63648;DHT22;49792;48.744;9.176;2023-04-25T06:16:55;18.10;61.20
63648;DHT22;49792;48.744;9.176;2023-04-25T06:19:21;18.00;61.10
63648;DHT22;49792;48.744;9.176;2023-04-25T06:21:46;18.20;61.30
63648;DHT22;49792;48.744;9.176;2023-04-25T06:24:14;18.10;60.90
63648;DHT22;49792;48.744;9.176;2023-04-25T06:26:40;18.20;61.10
63648;DHT22;49792;48.744;9.176;2023-04-25T06:29:08;18.20;61.20
63648;DHT22;49792;48.744;9.176;2023-04-25T06:31:34;18.20;61.30
63648;DHT22;49792;48.744;9.176;2023-04-25T06:34:00;18.20;61.30
63648;DHT22;49792;48.744;9.176;2023-04-25T06:36:25;18.20;61.60
63648;DHT22;49792;48.744;9.176;2023-04-25T06:38:53;18.20;61.60
63648;DHT22;49792;48.744;9.176;2023-04-25T06:41:18;18.20;62.50
63648;DHT22;49792;48.744;9.176;2023-04-25T06:43:44;18.30;61.80
63648;DHT22;49792;48.744;9.176;2023-04-25T06:46:09;18.30;62.00
63648;DHT22;49792;48.744;9.176;2023-04-25T06:48:35;18.30;62.10
63648;DHT22;49792;48.744;9.176;2023-04-25T06:51:01;18.30;62.20
63648;DHT22;49792;48.744;9.176;2023-04-25T06:53:29;18.30;62.20
63648;DHT22;49792;48.744;9.176;2023-04-25T06:55:54;18.20;62.10
63648;DHT22;49792;48.744;9.176;2023-04-25T06:58:20;18.30;62.00
63648;DHT22;49792;48.744;9.176;2023-04-25T07:00:45;18.30;62.00
63648;DHT22;49792;48.744;9.176;2023-04-25T07:03:11;18.20;61.80
63648;DHT22;49792;48.744;9.176;2023-04-25T07:05:37;18.30;62.00
63648;DHT22;49792;48.744;9.176;2023-04-25T07:08:02;18.30;61.90
63648;DHT22;49792;48.744;9.176;2023-04-25T07:10:28;18.30;61.90
63648;DHT22;49792;48.744;9.176;2023-04-25T07:12:53;18.30;61.90
63648;DHT22;49792;48.744;9.176;2023-04-25T07:15:19;18.30;61.90
63648;DHT22;49792;48.744;9.176;2023-04-25T07:17:45;18.30;61.90
63648;DHT22;49792;48.744;9.176;2023-04-25T07:20:10;18.30;61.90
63648;DHT22;49792;48.744;9.176;2023-04-25T07:22:36;18.30;62.80
63648;DHT22;49792;48.744;9.176;2023-04-25T07:25:01;18.30;62.00
63648;DHT22;49792;48.744;9.176;2023-04-25T07:27:28;18.30;62.00
63648;DHT22;49792;48.744;9.176;2023-04-25T07:29:53;18.30;62.10
63648;DHT22;49792;48.744;9.176;2023-04-25T07:32:19;18.40;62.10
63648;DHT22;49792;48.744;9.176;2023-04-25T07:34:45;18.30;62.20
63648;DHT22;49792;48.744;9.176;2023-04-25T07:37:10;18.40;62.20
63648;DHT22;49792;48.744;9.176;2023-04-25T07:39:36;18.20;62.10
63648;DHT22;49792;48.744;9.176;2023-04-25T07:42:02;18.30;62.40
63648;DHT22;49792;48.744;9.176;2023-04-25T07:44:29;18.30;62.20
63648;DHT22;49792;48.744;9.176;2023-04-25T07:46:55;18.30;62.40
63648;DHT22;49792;48.744;9.176;2023-04-25T07:49:21;18.30;62.40
63648;DHT22;49792;48.744;9.176;2023-04-25T07:51:47;18.30;62.60
63648;DHT22;49792;48.744;9.176;2023-04-25T07:54:13;18.30;62.70
63648;DHT22;49792;48.744;9.176;2023-04-25T07:56:38;18.30;62.80
63648;DHT22;49792;48.744;9.176;2023-04-25T07:59:04;18.30;62.90
63648;DHT22;49792;48.744;9.176;2023-04-25T08:01:30;18.20;63.00
63648;DHT22;49792;48.744;9.176;2023-04-25T08:03:56;18.30;63.00
63648;DHT22;49792;48.744;9.176;2023-04-25T08:06:21;18.30;62.90
63648;DHT22;49792;48.744;9.176;2023-04-25T08:08:47;18.30;62.80
63648;DHT22;49792;48.744;9.176;2023-04-25T08:11:12;18.30;62.80
63648;DHT22;49792;48.744;9.176;2023-04-25T08:13:38;18.50;63.20
63648;DHT22;49792;48.744;9.176;2023-04-25T08:16:03;18.30;63.00
63648;DHT22;49792;48.744;9.176;2023-04-25T08:18:29;18.30;63.20
63648;DHT22;49792;48.744;9.176;2023-04-25T08:20:54;18.30;62.90
63648;DHT22;49792;48.744;9.176;2023-04-25T08:23:20;18.30;63.00
63648;DHT22;49792;48.744;9.176;2023-04-25T08:25:45;18.30;62.90
63648;DHT22;49792;48.744;9.176;2023-04-25T08:28:11;18.30;62.50
63648;DHT22;49792;48.744;9.176;2023-04-25T08:30:37;18.40;63.20
63648;DHT22;49792;48.744;9.176;2023-04-25T08:33:02;18.40;63.60
63648;DHT22;49792;48.744;9.176;2023-04-25T08:35:28;18.40;63.90
63648;DHT22;49792;48.744;9.176;2023-04-25T08:37:59;18.40;64.30
63648;DHT22;49792;48.744;9.176;2023-04-25T08:40:26;18.30;64.50
63648;DHT22;49792;48.744;9.176;2023-04-25T08:42:54;18.40;65.00
63648;DHT22;49792;48.744;9.176;2023-04-25T08:45:20;18.30;64.90
63648;DHT22;49792;48.744;9.176;2023-04-25T08:47:46;18.40;65.10
63648;DHT22;49792;48.744;9.176;2023-04-25T08:50:13;18.40;65.10
63648;DHT22;49792;48.744;9.176;2023-04-25T08:52:48;18.40;64.90
63648;DHT22;49792;48.744;9.176;2023-04-25T08:55:15;18.30;65.00
63648;DHT22;49792;48.744;9.176;2023-04-25T08:57:47;18.40;65.20
63648;DHT22;49792;48.744;9.176;2023-04-25T09:00:12;18.40;65.20
63648;DHT22;49792;48.744;9.176;2023-04-25T09:02:38;18.40;65.20
63648;DHT22;49792;48.744;9.176;2023-04-25T09:05:07;18.40;65.00
63648;DHT22;49792;48.744;9.176;2023-04-25T09:07:35;18.50;64.50
63648;DHT22;49792;48.744;9.176;2023-04-25T09:10:00;18.50;64.40
63648;DHT22;49792;48.744;9.176;2023-04-25T09:12:31;18.50;64.20
63648;DHT22;49792;48.744;9.176;2023-04-25T09:15:07;18.60;64.10
63648;DHT22;49792;48.744;9.176;2023-04-25T09:17:33;18.50;63.90
63648;DHT22;49792;48.744;9.176;2023-04-25T09:20:05;18.50;63.80
63648;DHT22;49792;48.744;9.176;2023-04-25T09:22:31;18.50;63.70
63648;DHT22;49792;48.744;9.176;2023-04-25T09:24:57;18.50;63.50
63648;DHT22;49792;48.744;9.176;2023-04-25T09:27:25;18.60;63.50
63648;DHT22;49792;48.744;9.176;2023-04-25T09:29:58;18.50;63.40
63648;DHT22;49792;48.744;9.176;2023-04-25T09:32:27;18.60;63.40
63648;DHT22;49792;48.744;9.176;2023-04-25T09:34:53;18.60;63.30
63648;DHT22;49792;48.744;9.176;2023-04-25T09:39:48;18.60;63.10
63648;DHT22;49792;48.744;9.176;2023-04-25T09:42:15;18.60;63.10
63648;DHT22;49792;48.744;9.176;2023-04-25T09:44:45;18.60;63.00
63648;DHT22;49792;48.744;9.176;2023-04-25T09:47:11;18.60;63.00
63648;DHT22;49792;48.744;9.176;2023-04-25T09:49:41;18.60;62.90
63648;DHT22;49792;48.744;9.176;2023-04-25T09:52:07;18.60;62.70
63648;DHT22;49792;48.744;9.176;2023-04-25T09:54:33;18.60;62.70
63648;DHT22;49792;48.744;9.176;2023-04-25T09:56:59;18.70;63.10
63648;DHT22;49792;48.744;9.176;2023-04-25T09:59:32;18.70;62.90
63648;DHT22;49792;48.744;9.176;2023-04-25T10:02:01;18.60;63.00
63648;DHT22;49792;48.744;9.176;2023-04-25T10:04:26;18.60;63.00
63648;DHT22;49792;48.744;9.176;2023-04-25T10:06:53;18.60;63.00
63648;DHT22;49792;48.744;9.176;2023-04-25T10:09:20;18.60;63.00
63648;DHT22;49792;48.744;9.176;2023-04-25T10:11:46;18.60;63.00
63648;DHT22;49792;48.744;9.176;2023-04-25T10:14:13;18.60;63.00
63648;DHT22;49792;48.744;9.176;2023-04-25T10:16:39;18.60;63.00
63648;DHT22;49792;48.744;9.176;2023-04-25T10:19:05;18.60;63.00
63648;DHT22;49792;48.744;9.176;2023-04-25T10:21:31;18.60;63.10
63648;DHT22;49792;48.744;9.176;2023-04-25T10:23:57;18.60;63.10
63648;DHT22;49792;48.744;9.176;2023-04-25T10:26:23;18.60;63.10
63648;DHT22;49792;48.744;9.176;2023-04-25T10:31:37;18.50;63.00
63648;DHT22;49792;48.744;9.176;2023-04-25T10:34:12;18.50;63.00
63648;DHT22;49792;48.744;9.176;2023-04-25T10:36:40;18.60;62.90
63648;DHT22;49792;48.744;9.176;2023-04-25T10:39:06;18.60;62.90
63648;DHT22;49792;48.744;9.176;2023-04-25T10:44:21;18.60;63.00
63648;DHT22;49792;48.744;9.176;2023-04-25T10:46:49;18.60;63.00
63648;DHT22;49792;48.744;9.176;2023-04-25T10:54:47;18.60;63.10
63648;DHT22;49792;48.744;9.176;2023-04-25T11:02:46;18.60;63.10
63648;DHT22;49792;48.744;9.176;2023-04-25T11:05:22;18.60;63.10
63648;DHT22;49792;48.744;9.176;2023-04-25T11:07:52;18.50;63.00
63648;DHT22;49792;48.744;9.176;2023-04-25T11:10:34;18.60;63.00
63648;DHT22;49792;48.744;9.176;2023-04-25T11:13:03;18.60;62.90
63648;DHT22;49792;48.744;9.176;2023-04-25T11:15:29;18.60;62.70
63648;DHT22;49792;48.744;9.176;2023-04-25T11:17:54;18.60;62.70
63648;DHT22;49792;48.744;9.176;2023-04-25T11:20:20;18.60;62.70
63648;DHT22;49792;48.744;9.176;2023-04-25T11:22:46;18.60;62.70
63648;DHT22;49792;48.744;9.176;2023-04-25T11:25:13;18.60;62.60
63648;DHT22;49792;48.744;9.176;2023-04-25T11:27:49;18.70;62.70
63648;DHT22;49792;48.744;9.176;2023-04-25T11:30:15;18.60;62.50
63648;DHT22;49792;48.744;9.176;2023-04-25T11:32:41;18.70;62.50
63648;DHT22;49792;48.744;9.176;2023-04-25T11:35:08;18.70;62.60
63648;DHT22;49792;48.744;9.176;2023-04-25T11:37:34;18.60;62.60
63648;DHT22;49792;48.744;9.176;2023-04-25T11:40:00;18.60;62.50
63648;DHT22;49792;48.744;9.176;2023-04-25T11:42:25;18.70;62.50
63648;DHT22;49792;48.744;9.176;2023-04-25T11:44:51;18.70;62.30
63648;DHT22;49792;48.744;9.176;2023-04-25T11:47:16;18.70;62.40
63648;DHT22;49792;48.744;9.176;2023-04-25T11:49:43;18.70;62.40
63648;DHT22;49792;48.744;9.176;2023-04-25T11:52:08;18.70;62.40
63648;DHT22;49792;48.744;9.176;2023-04-25T11:54:37;18.70;62.40
63648;DHT22;49792;48.744;9.176;2023-04-25T11:57:03;18.70;62.40
63648;DHT22;49792;48.744;9.176;2023-04-25T11:59:29;18.70;62.40
63648;DHT22;49792;48.744;9.176;2023-04-25T12:01:54;18.60;62.40
63648;DHT22;49792;48.744;9.176;2023-04-25T12:04:21;18.60;62.40
63648;DHT22;49792;48.744;9.176;2023-04-25T12:06:47;18.60;62.40
63648;DHT22;49792;48.744;9.176;2023-04-25T12:09:13;18.50;62.30
63648;DHT22;49792;48.744;9.176;2023-04-25T12:11:47;18.60;62.30
63648;DHT22;49792;48.744;9.176;2023-04-25T12:14:26;18.60;62.30
63648;DHT22;49792;48.744;9.176;2023-04-25T12:16:56;18.60;62.30
63648;DHT22;49792;48.744;9.176;2023-04-25T12:19:22;18.60;62.40
63648;DHT22;49792;48.744;9.176;2023-04-25T12:21:48;18.60;62.40
63648;DHT22;49792;48.744;9.176;2023-04-25T12:24:15;18.60;62.40
63648;DHT22;49792;48.744;9.176;2023-04-25T12:29:22;18.60;62.30
63648;DHT22;49792;48.744;9.176;2023-04-25T12:31:48;18.60;62.20
63648;DHT22;49792;48.744;9.176;2023-04-25T12:34:14;18.60;62.40
63648;DHT22;49792;48.744;9.176;2023-04-25T12:36:42;18.60;62.30
63648;DHT22;49792;48.744;9.176;2023-04-25T12:39:08;18.60;62.20
63648;DHT22;49792;48.744;9.176;2023-04-25T12:41:34;18.60;62.20
63648;DHT22;49792;48.744;9.176;2023-04-25T12:43:59;18.60;62.20
63648;DHT22;49792;48.744;9.176;2023-04-25T12:46:25;18.60;62.20
63648;DHT22;49792;48.744;9.176;2023-04-25T12:48:51;18.60;62.20
63648;DHT22;49792;48.744;9.176;2023-04-25T12:51:16;18.60;62.20
63648;DHT22;49792;48.744;9.176;2023-04-25T12:53:42;18.60;62.20
63648;DHT22;49792;48.744;9.176;2023-04-25T12:56:08;18.70;62.20
63648;DHT22;49792;48.744;9.176;2023-04-25T12:58:33;18.70;62.20
63648;DHT22;49792;48.744;9.176;2023-04-25T13:00:59;18.70;63.00
63648;DHT22;49792;48.744;9.176;2023-04-25T13:03:24;18.70;62.20
63648;DHT22;49792;48.744;9.176;2023-04-25T13:05:51;18.70;62.20
63648;DHT22;49792;48.744;9.176;2023-04-25T13:08:21;18.70;62.20
63648;DHT22;49792;48.744;9.176;2023-04-25T13:10:49;18.70;62.20
63648;DHT22;49792;48.744;9.176;2023-04-25T13:13:15;18.80;62.20
63648;DHT22;49792;48.744;9.176;2023-04-25T13:15:41;18.80;62.20
63648;DHT22;49792;48.744;9.176;2023-04-25T13:18:07;18.80;62.10
63648;DHT22;49792;48.744;9.176;2023-04-25T13:20:33;18.80;62.00
63648;DHT22;49792;48.744;9.176;2023-04-25T13:22:58;18.70;62.40
63648;DHT22;49792;48.744;9.176;2023-04-25T13:25:33;18.70;62.50
63648;DHT22;49792;48.744;9.176;2023-04-25T13:27:59;18.90;63.00
63648;DHT22;49792;48.744;9.176;2023-04-25T13:30:27;18.90;65.90
63648;DHT22;49792;48.744;9.176;2023-04-25T13:32:53;19.00;70.70
63648;DHT22;49792;48.744;9.176;2023-04-25T13:35:21;19.00;74.30
63648;DHT22;49792;48.744;9.176;2023-04-25T13:37:49;18.60;72.80
63648;DHT22;49792;48.744;9.176;2023-04-25T13:40:15;18.70;74.70
63648;DHT22;49792;48.744;9.176;2023-04-25T13:42:40;18.90;79.70
63648;DHT22;49792;48.744;9.176;2023-04-25T13:45:06;18.90;80.00
63648;DHT22;49792;48.744;9.176;2023-04-25T13:47:32;18.90;79.30
63648;DHT22;49792;48.744;9.176;2023-04-25T13:49:58;18.90;78.30
63648;DHT22;49792;48.744;9.176;2023-04-25T13:52:23;18.90;77.30
63648;DHT22;49792;48.744;9.176;2023-04-25T13:54:52;18.90;75.20
63648;DHT22;49792;48.744;9.176;2023-04-25T13:57:18;18.90;73.60
63648;DHT22;49792;48.744;9.176;2023-04-25T13:59:43;18.90;72.40
63648;DHT22;49792;48.744;9.176;2023-04-25T14:02:09;18.90;71.50
63648;DHT22;49792;48.744;9.176;2023-04-25T14:04:34;19.00;71.00
63648;DHT22;49792;48.744;9.176;2023-04-25T14:07:00;19.00;70.00
63648;DHT22;49792;48.744;9.176;2023-04-25T14:09:27;19.10;69.70
63648;DHT22;49792;48.744;9.176;2023-04-25T14:11:53;19.00;69.90
63648;DHT22;49792;48.744;9.176;2023-04-25T14:14:19;19.00;69.80
63648;DHT22;49792;48.744;9.176;2023-04-25T14:16:44;19.00;69.30
63648;DHT22;49792;48.744;9.176;2023-04-25T14:19:10;19.00;68.90
63648;DHT22;49792;48.744;9.176;2023-04-25T14:21:35;18.90;69.20
63648;DHT22;49792;48.744;9.176;2023-04-25T14:24:01;18.90;68.20
63648;DHT22;49792;48.744;9.176;2023-04-25T14:26:26;18.90;67.90
63648;DHT22;49792;48.744;9.176;2023-04-25T14:28:55;18.90;67.90
63648;DHT22;49792;48.744;9.176;2023-04-25T14:31:21;18.90;68.20
63648;DHT22;49792;48.744;9.176;2023-04-25T14:33:46;18.90;68.10
63648;DHT22;49792;48.744;9.176;2023-04-25T14:36:12;18.90;68.20
63648;DHT22;49792;48.744;9.176;2023-04-25T14:38:38;18.80;68.60
63648;DHT22;49792;48.744;9.176;2023-04-25T14:41:04;18.70;68.60
63648;DHT22;49792;48.744;9.176;2023-04-25T14:43:30;18.70;69.00
63648;DHT22;49792;48.744;9.176;2023-04-25T14:46:03;18.70;69.20
63648;DHT22;49792;48.744;9.176;2023-04-25T14:48:29;18.70;69.00
63648;DHT22;49792;48.744;9.176;2023-04-25T14:50:54;18.60;69.10
63648;DHT22;49792;48.744;9.176;2023-04-25T14:53:22;18.50;69.20
63648;DHT22;49792;48.744;9.176;2023-04-25T14:55:47;18.70;69.30
63648;DHT22;49792;48.744;9.176;2023-04-25T14:58:14;18.60;69.00
63648;DHT22;49792;48.744;9.176;2023-04-25T15:00:39;18.60;69.10
63648;DHT22;49792;48.744;9.176;2023-04-25T15:03:08;18.60;68.90
63648;DHT22;49792;48.744;9.176;2023-04-25T15:05:36;18.60;69.00
63648;DHT22;49792;48.744;9.176;2023-04-25T15:14:42;18.80;67.80
63648;DHT22;49792;48.744;9.176;2023-04-25T15:17:16;18.80;67.60
63648;DHT22;49792;48.744;9.176;2023-04-25T15:20:06;18.80;67.50
63648;DHT22;49792;48.744;9.176;2023-04-25T15:23:17;18.80;67.50
63648;DHT22;49792;48.744;9.176;2023-04-25T15:25:46;18.80;67.70
63648;DHT22;49792;48.744;9.176;2023-04-25T15:28:12;18.70;67.50
63648;DHT22;49792;48.744;9.176;2023-04-25T15:30:43;18.70;67.70
63648;DHT22;49792;48.744;9.176;2023-04-25T15:33:08;18.90;67.90
63648;DHT22;49792;48.744;9.176;2023-04-25T15:35:34;18.70;67.70
63648;DHT22;49792;48.744;9.176;2023-04-25T15:37:59;18.70;67.80
63648;DHT22;49792;48.744;9.176;2023-04-25T15:40:25;18.70;67.80
63648;DHT22;49792;48.744;9.176;2023-04-25T15:42:51;18.70;67.90
63648;DHT22;49792;48.744;9.176;2023-04-25T15:45:17;18.60;67.80
63648;DHT22;49792;48.744;9.176;2023-04-25T15:47:46;18.60;67.80
63648;DHT22;49792;48.744;9.176;2023-04-25T15:50:17;18.60;67.70
63648;DHT22;49792;48.744;9.176;2023-04-25T15:52:42;18.50;67.70
63648;DHT22;49792;48.744;9.176;2023-04-25T15:55:08;18.60;67.80